Time;durP1;ratioP1;P1;durP2;ratioP2;P2;SDS_P1;SDS_P2;PMS_P1;PMS_P2;Temp;Humidity;BMP_temperature;BMP_pressure;BME280_temperature;BME280_humidity;BME280_pressure;Samples;Min_cycle;Max_cycle;Signal;HPM_P1;HPM_P2
2021/12/06 00:01:09;;;;;;;24.88;13.10;;;;;;;;;;5109186;28;20053;-76
2021/12/06 00:03:47;;;;;;;25.58;13.13;;;;;;;;;;5109471;28;20548;-77
2021/12/06 00:06:15;;;;;;;23.75;12.50;;;;;;;;;;5109248;28;20035;-77
2021/12/06 00:08:41;;;;;;;25.98;13.52;;;;;;;;;;5108883;28;20118;-77
2021/12/06 00:11:09;;;;;;;26.80;13.50;;;;;;;;;;5107966;28;20050;-77
2021/12/06 00:13:37;;;;;;;25.30;13.52;;;;;;;;;;5109729;28;20036;-77
2021/12/06 00:16:07;;;;;;;26.83;14.38;;;;;;;;;;5091612;28;20056;-77
2021/12/06 00:18:33;;;;;;;27.25;14.27;;;;;;;;;;5108571;28;20048;-81
2021/12/06 00:20:59;;;;;;;28.17;15.25;;;;;;;;;;5108880;28;20040;-80
2021/12/06 00:23:27;;;;;;;28.88;14.65;;;;;;;;;;5108770;28;20376;-81
2021/12/06 00:25:53;;;;;;;29.40;14.40;;;;;;;;;;5108222;28;20403;-81
2021/12/06 00:28:20;;;;;;;27.52;13.25;;;;;;;;;;5109051;28;20051;-82
2021/12/06 00:30:46;;;;;;;29.30;14.88;;;;;;;;;;5091130;28;20504;-81
2021/12/06 00:33:12;;;;;;;27.33;14.25;;;;;;;;;;5109092;28;20462;-81
2021/12/06 00:35:38;;;;;;;30.40;14.82;;;;;;;;;;5093828;28;20118;-81
2021/12/06 00:38:05;;;;;;;29.98;14.25;;;;;;;;;;5096262;28;20040;-81
2021/12/06 00:40:33;;;;;;;28.40;14.32;;;;;;;;;;5106397;28;20031;-81
2021/12/06 00:43:00;;;;;;;25.48;13.30;;;;;;;;;;5108737;28;20043;-81
2021/12/06 00:45:26;;;;;;;27.20;13.10;;;;;;;;;;5091467;28;20501;-81
2021/12/06 00:47:52;;;;;;;27.85;13.88;;;;;;;;;;5108301;28;20470;-81
2021/12/06 00:50:19;;;;;;;29.40;13.88;;;;;;;;;;5125882;27;20039;-77
2021/12/06 00:52:45;;;;;;;29.33;14.32;;;;;;;;;;5107701;28;20028;-77
2021/12/06 00:55:13;;;;;;;30.75;14.68;;;;;;;;;;5125704;27;20043;-77
2021/12/06 00:57:39;;;;;;;30.85;15.15;;;;;;;;;;5108141;28;20039;-77
2021/12/06 01:00:11;;;;;;;31.65;15.55;;;;;;;;;;5091437;28;20055;-77
2021/12/06 01:02:37;;;;;;;30.30;14.48;;;;;;;;;;5108099;28;20478;-77
2021/12/06 01:05:04;;;;;;;32.03;15.20;;;;;;;;;;5091468;28;20047;-76
2021/12/06 01:07:30;;;;;;;32.22;15.30;;;;;;;;;;5090896;28;20040;-76
2021/12/06 01:09:56;;;;;;;31.65;15.63;;;;;;;;;;5107965;28;20379;-77
2021/12/06 01:12:22;;;;;;;28.52;13.15;;;;;;;;;;5108246;28;20096;-77
2021/12/06 01:14:48;;;;;;;34.72;15.82;;;;;;;;;;5107933;28;20039;-77
2021/12/06 01:17:14;;;;;;;33.83;15.88;;;;;;;;;;5107896;28;20089;-80
2021/12/06 01:19:41;;;;;;;33.05;16.08;;;;;;;;;;5107806;28;20127;-81
2021/12/06 01:24:41;;;;;;;32.30;15.75;;;;;;;;;;5112320;28;20047;-80
2021/12/06 01:28:17;;;;;;;35.90;16.27;;;;;;;;;;5112005;28;20503;-76
2021/12/06 01:40:41;;;;;;;33.20;14.68;;;;;;;;;;5097379;28;20475;-77
2021/12/06 01:43:08;;;;;;;36.50;16.40;;;;;;;;;;5129098;27;20051;-77
2021/12/06 01:45:34;;;;;;;40.42;18.55;;;;;;;;;;5094750;28;20367;-77
2021/12/06 01:48:00;;;;;;;42.30;17.38;;;;;;;;;;5111729;28;20035;-77
2021/12/06 01:50:28;;;;;;;38.38;18.08;;;;;;;;;;5097463;28;20122;-77
2021/12/06 01:52:56;;;;;;;41.75;17.65;;;;;;;;;;5111777;28;20518;-77
2021/12/06 01:55:24;;;;;;;40.75;17.67;;;;;;;;;;5111605;28;20044;-80
2021/12/06 01:57:50;;;;;;;41.03;18.50;;;;;;;;;;5111347;28;20051;-80
2021/12/06 02:00:19;;;;;;;42.70;19.17;;;;;;;;;;5112017;28;20043;-77
2021/12/06 02:02:45;;;;;;;42.42;18.23;;;;;;;;;;5111269;28;20506;-80
2021/12/06 02:05:12;;;;;;;42.10;17.48;;;;;;;;;;5111509;28;20081;-80
2021/12/06 02:07:38;;;;;;;40.30;17.27;;;;;;;;;;5128838;27;20039;-80
2021/12/06 02:10:06;;;;;;;42.67;19.17;;;;;;;;;;5111433;28;20316;-80
2021/12/06 02:12:32;;;;;;;44.92;18.25;;;;;;;;;;5111854;28;20069;-80
2021/12/06 02:15:05;;;;;;;45.35;19.13;;;;;;;;;;5111530;28;20043;-80
2021/12/06 02:17:37;;;;;;;44.00;18.27;;;;;;;;;;5095170;28;20533;-77
2021/12/06 02:20:22;;;;;;;43.40;18.77;;;;;;;;;;5094379;28;20055;-77
2021/12/06 02:22:48;;;;;;;41.95;18.20;;;;;;;;;;5111120;28;20055;-81
2021/12/06 02:25:17;;;;;;;46.78;19.45;;;;;;;;;;5111539;28;20053;-81
2021/12/06 02:27:44;;;;;;;47.55;19.45;;;;;;;;;;5111260;28;20122;-80
2021/12/06 02:30:11;;;;;;;44.50;18.65;;;;;;;;;;5094139;28;20039;-80
2021/12/06 02:32:37;;;;;;;43.03;18.27;;;;;;;;;;5110465;28;20487;-80
2021/12/06 02:35:04;;;;;;;47.20;19.55;;;;;;;;;;5110862;28;20039;-80
2021/12/06 02:37:32;;;;;;;47.38;19.73;;;;;;;;;;5110771;28;20078;-80
2021/12/06 02:39:59;;;;;;;45.35;18.58;;;;;;;;;;5110495;28;20051;-77
2021/12/06 02:42:26;;;;;;;47.83;20.27;;;;;;;;;;5110795;28;20390;-80
2021/12/06 02:44:52;;;;;;;47.40;19.35;;;;;;;;;;5110468;28;20044;-81
2021/12/06 02:47:20;;;;;;;47.25;20.10;;;;;;;;;;5110470;28;20089;-80
2021/12/06 02:49:46;;;;;;;50.17;20.15;;;;;;;;;;5093244;28;20114;-80
2021/12/06 02:52:13;;;;;;;47.35;19.95;;;;;;;;;;5075663;28;20445;-77
2021/12/06 02:54:40;;;;;;;47.92;18.67;;;;;;;;;;5110700;28;20034;-77
2021/12/06 02:57:19;;;;;;;52.33;20.25;;;;;;;;;;5110399;28;20394;-77
2021/12/06 02:59:47;;;;;;;49.55;20.50;;;;;;;;;;5129129;27;20043;-77
2021/12/06 03:02:15;;;;;;;49.83;19.25;;;;;;;;;;5103696;28;20052;-77
2021/12/06 03:04:42;;;;;;;50.17;19.73;;;;;;;;;;5101964;28;20104;-77
2021/12/06 03:07:08;;;;;;;48.63;19.58;;;;;;;;;;5087988;28;20495;-77
2021/12/06 03:09:37;;;;;;;56.90;21.80;;;;;;;;;;5089375;28;20060;-77
2021/12/06 03:12:06;;;;;;;47.75;19.50;;;;;;;;;;5089373;28;20139;-77
2021/12/06 03:14:35;;;;;;;54.00;20.15;;;;;;;;;;5095650;28;20036;-76
2021/12/06 03:17:03;;;;;;;49.00;19.25;;;;;;;;;;5101750;28;20058;-77
2021/12/06 03:19:30;;;;;;;49.22;20.17;;;;;;;;;;5109679;28;20051;-77
2021/12/06 03:21:57;;;;;;;45.50;18.63;;;;;;;;;;5108965;28;20036;-77
2021/12/06 03:24:23;;;;;;;47.13;18.45;;;;;;;;;;5109918;28;20043;-80
2021/12/06 03:26:50;;;;;;;49.30;19.90;;;;;;;;;;5092086;28;20165;-80
2021/12/06 03:29:16;;;;;;;50.15;19.98;;;;;;;;;;5109565;28;20096;-80
2021/12/06 03:31:42;;;;;;;47.08;18.27;;;;;;;;;;5109272;28;20053;-80
2021/12/06 03:34:09;;;;;;;47.70;18.77;;;;;;;;;;5109221;28;20036;-80
2021/12/06 03:36:36;;;;;;;47.28;18.65;;;;;;;;;;5092552;28;20043;-80
2021/12/06 03:39:05;;;;;;;47.05;18.70;;;;;;;;;;5109258;28;20120;-77
2021/12/06 03:41:31;;;;;;;48.00;18.85;;;;;;;;;;5109496;28;20108;-77
2021/12/06 03:43:58;;;;;;;49.10;20.08;;;;;;;;;;5105860;28;20079;-77
2021/12/06 03:46:25;;;;;;;51.53;19.90;;;;;;;;;;5085147;28;20473;-76
2021/12/06 03:48:51;;;;;;;48.15;20.17;;;;;;;;;;5094276;28;20039;-77
2021/12/06 03:51:17;;;;;;;48.65;19.02;;;;;;;;;;5091986;28;20035;-77
2021/12/06 03:53:44;;;;;;;43.83;18.75;;;;;;;;;;5085260;28;20375;-77
2021/12/06 03:56:10;;;;;;;49.55;19.35;;;;;;;;;;5092106;28;20047;-77
2021/12/06 03:58:36;;;;;;;46.75;20.05;;;;;;;;;;5109133;28;20364;-77
2021/12/06 04:01:04;;;;;;;50.05;20.92;;;;;;;;;;5109145;28;20428;-80
2021/12/06 04:03:31;;;;;;;50.58;19.35;;;;;;;;;;5094647;28;20487;-77
2021/12/06 04:05:57;;;;;;;51.30;19.65;;;;;;;;;;5100045;28;20043;-76
2021/12/06 04:08:25;;;;;;;47.60;20.05;;;;;;;;;;5103617;28;20038;-77
2021/12/06 04:10:51;;;;;;;50.25;20.23;;;;;;;;;;5108594;28;20035;-77
2021/12/06 04:13:17;;;;;;;51.72;19.52;;;;;;;;;;5091990;28;20039;-77
2021/12/06 04:15:44;;;;;;;49.33;20.15;;;;;;;;;;5108380;28;20046;-77
2021/12/06 04:18:10;;;;;;;47.78;18.05;;;;;;;;;;5079721;28;20044;-80
2021/12/06 04:20:37;;;;;;;48.22;20.08;;;;;;;;;;5105513;28;20043;-80
2021/12/06 04:23:05;;;;;;;51.38;20.77;;;;;;;;;;5108736;28;20421;-80
2021/12/06 04:25:31;;;;;;;50.25;17.90;;;;;;;;;;5108529;28;20040;-80
2021/12/06 04:28:03;;;;;;;53.53;21.15;;;;;;;;;;5108233;28;20035;-77
2021/12/06 04:30:30;;;;;;;52.97;20.98;;;;;;;;;;5105621;28;20043;-77
2021/12/06 04:32:56;;;;;;;50.80;20.02;;;;;;;;;;5091388;28;20035;-77
2021/12/06 04:35:23;;;;;;;52.72;20.70;;;;;;;;;;5108129;28;20130;-77
2021/12/06 04:37:49;;;;;;;47.53;18.27;;;;;;;;;;5107885;28;20159;-77
2021/12/06 04:40:15;;;;;;;54.13;21.08;;;;;;;;;;5074812;28;20047;-80
2021/12/06 04:42:41;;;;;;;53.60;22.08;;;;;;;;;;5108138;28;20079;-80
2021/12/06 04:45:08;;;;;;;55.40;20.88;;;;;;;;;;5108385;28;20480;-80
2021/12/06 04:47:34;;;;;;;58.72;21.50;;;;;;;;;;5108151;28;20047;-80
2021/12/06 04:50:00;;;;;;;58.58;21.13;;;;;;;;;;5107926;28;20036;-77
2021/12/06 04:52:27;;;;;;;53.50;20.67;;;;;;;;;;5094429;28;20434;-79
2021/12/06 04:54:55;;;;;;;53.90;19.95;;;;;;;;;;5107225;28;20035;-80
2021/12/06 04:57:32;;;;;;;56.90;21.05;;;;;;;;;;5106233;28;20043;-77
2021/12/06 05:00:01;;;;;;;58.90;20.75;;;;;;;;;;5107813;28;20044;-79
2021/12/06 05:02:32;;;;;;;59.92;21.08;;;;;;;;;;5092159;28;20048;-80
2021/12/06 05:05:00;;;;;;;52.38;18.85;;;;;;;;;;5088031;28;20131;-77
2021/12/06 05:07:29;;;;;;;51.45;18.80;;;;;;;;;;5086477;28;20036;-81
2021/12/06 05:09:55;;;;;;;57.13;21.08;;;;;;;;;;5086984;28;20036;-76
2021/12/06 05:12:23;;;;;;;57.90;21.85;;;;;;;;;;5071107;28;20050;-77
2021/12/06 05:14:49;;;;;;;59.17;21.58;;;;;;;;;;5087273;28;20086;-77
2021/12/06 05:17:15;;;;;;;64.15;21.38;;;;;;;;;;5087270;28;20075;-76
2021/12/06 05:19:41;;;;;;;63.08;20.95;;;;;;;;;;5087104;28;20040;-77
2021/12/06 05:22:07;;;;;;;51.67;17.08;;;;;;;;;;5084533;28;20040;-79
2021/12/06 05:24:34;;;;;;;61.47;20.92;;;;;;;;;;5087957;28;20453;-77
2021/12/06 05:27:00;;;;;;;63.13;22.30;;;;;;;;;;5070601;28;20044;-80
2021/12/06 05:29:28;;;;;;;63.28;20.90;;;;;;;;;;5090857;28;20063;-79
2021/12/06 05:31:56;;;;;;;68.13;23.05;;;;;;;;;;5105916;28;20118;-77
2021/12/06 05:34:30;;;;;;;65.00;21.65;;;;;;;;;;5070293;28;20033;-80
2021/12/06 05:36:57;;;;;;;65.55;20.77;;;;;;;;;;5085552;28;20536;-80
2021/12/06 05:39:23;;;;;;;68.40;21.58;;;;;;;;;;5100633;28;20055;-77
2021/12/06 05:41:50;;;;;;;62.65;21.20;;;;;;;;;;5086969;28;20076;-77
2021/12/06 05:44:16;;;;;;;54.78;18.52;;;;;;;;;;5101231;28;20072;-77
2021/12/06 05:46:42;;;;;;;64.28;21.55;;;;;;;;;;5086981;28;20055;-77
2021/12/06 05:49:08;;;;;;;51.58;17.17;;;;;;;;;;5087066;28;20122;-79
2021/12/06 05:51:34;;;;;;;68.85;21.80;;;;;;;;;;5087033;28;20043;-80
2021/12/06 05:54:01;;;;;;;68.15;22.48;;;;;;;;;;5099247;28;20506;-80
2021/12/06 05:56:27;;;;;;;68.88;21.52;;;;;;;;;;5090335;28;20089;-80
2021/12/06 05:58:53;;;;;;;70.45;22.70;;;;;;;;;;5089838;28;20043;-80
2021/12/06 06:01:21;;;;;;;63.17;18.83;;;;;;;;;;5105360;28;20055;-77
2021/12/06 06:03:47;;;;;;;80.32;21.33;;;;;;;;;;5094880;28;20038;-81
2021/12/06 06:06:13;;;;;;;74.65;21.40;;;;;;;;;;5124905;27;20142;-80
2021/12/06 06:08:39;;;;;;;77.25;23.17;;;;;;;;;;5109026;28;20032;-80
2021/12/06 06:11:05;;;;;;;76.30;20.95;;;;;;;;;;5111117;28;20046;-79
2021/12/06 06:13:31;;;;;;;86.97;21.95;;;;;;;;;;5110923;28;20047;-77
2021/12/06 06:15:58;;;;;;;81.10;21.90;;;;;;;;;;5093676;28;20412;-79
2021/12/06 06:18:24;;;;;;;75.13;20.70;;;;;;;;;;5113567;27;20130;-80
2021/12/06 06:20:52;;;;;;;70.88;20.25;;;;;;;;;;5110712;28;20040;-81
2021/12/06 06:23:18;;;;;;;79.53;20.15;;;;;;;;;;5096294;28;20057;-79
2021/12/06 06:25:44;;;;;;;77.22;21.17;;;;;;;;;;5087042;28;20046;-80
2021/12/06 06:28:10;;;;;;;73.13;21.92;;;;;;;;;;5103164;28;20042;-80
2021/12/06 06:30:37;;;;;;;83.35;21.23;;;;;;;;;;5110449;28;20039;-80
2021/12/06 06:33:04;;;;;;;78.45;20.88;;;;;;;;;;5082526;28;20042;-80
2021/12/06 06:35:30;;;;;;;87.32;21.55;;;;;;;;;;5107193;28;20046;-80
2021/12/06 06:37:57;;;;;;;72.05;20.48;;;;;;;;;;5110772;28;20083;-80
2021/12/06 06:40:23;;;;;;;80.82;21.55;;;;;;;;;;5076536;28;20108;-80
2021/12/06 06:42:49;;;;;;;78.38;22.73;;;;;;;;;;5110420;28;20039;-80
2021/12/06 06:45:17;;;;;;;76.30;20.25;;;;;;;;;;5110731;28;20048;-80
2021/12/06 06:47:44;;;;;;;87.45;21.17;;;;;;;;;;5110098;28;20035;-80
2021/12/06 06:50:11;;;;;;;86.40;22.98;;;;;;;;;;5110395;28;20044;-80
2021/12/06 06:52:37;;;;;;;81.32;21.00;;;;;;;;;;5111074;28;20380;-77
2021/12/06 06:55:05;;;;;;;90.43;22.58;;;;;;;;;;5109475;28;20044;-80
2021/12/06 06:57:31;;;;;;;86.38;22.50;;;;;;;;;;5093287;28;20133;-76
2021/12/06 06:59:57;;;;;;;101.20;24.40;;;;;;;;;;5092455;28;20047;-80
2021/12/06 07:02:23;;;;;;;92.38;22.85;;;;;;;;;;5109518;28;20075;-80
2021/12/06 07:04:49;;;;;;;96.47;21.92;;;;;;;;;;5092296;28;20043;-80
2021/12/06 07:07:16;;;;;;;107.30;24.55;;;;;;;;;;5076839;28;20067;-80
2021/12/06 07:09:43;;;;;;;102.30;23.63;;;;;;;;;;5092429;28;20050;-80
2021/12/06 07:12:16;;;;;;;105.45;25.35;;;;;;;;;;5110341;28;20043;-80
2021/12/06 07:14:43;;;;;;;105.13;24.40;;;;;;;;;;5109532;28;20047;-80
2021/12/06 07:17:10;;;;;;;108.40;24.08;;;;;;;;;;5109832;28;20414;-80
2021/12/06 07:19:36;;;;;;;115.15;25.77;;;;;;;;;;5109635;28;20519;-80
2021/12/06 07:22:03;;;;;;;109.15;23.30;;;;;;;;;;5092442;28;20153;-80
2021/12/06 07:24:29;;;;;;;112.97;25.23;;;;;;;;;;5109599;28;20043;-80
2021/12/06 07:26:56;;;;;;;125.72;27.45;;;;;;;;;;5108967;28;20043;-80
2021/12/06 07:29:22;;;;;;;128.10;27.63;;;;;;;;;;5092479;28;20051;-80
2021/12/06 07:31:48;;;;;;;109.30;26.02;;;;;;;;;;5109193;28;20032;-80
2021/12/06 07:34:14;;;;;;;111.25;25.08;;;;;;;;;;5109984;28;20082;-80
2021/12/06 07:36:40;;;;;;;111.93;24.83;;;;;;;;;;5109781;28;20048;-80
2021/12/06 07:39:06;;;;;;;106.70;25.48;;;;;;;;;;5126737;27;20043;-80
2021/12/06 07:41:33;;;;;;;100.28;24.92;;;;;;;;;;5081947;28;20494;-80
2021/12/06 07:43:59;;;;;;;97.45;24.45;;;;;;;;;;5105891;28;20050;-80
2021/12/06 07:46:25;;;;;;;101.20;24.77;;;;;;;;;;5109278;28;20126;-80
2021/12/06 07:48:52;;;;;;;95.78;24.98;;;;;;;;;;5109237;28;20495;-80
2021/12/06 07:51:26;;;;;;;96.75;25.27;;;;;;;;;;5109429;28;20044;-80
2021/12/06 07:53:52;;;;;;;102.05;25.50;;;;;;;;;;5108859;28;20036;-80
2021/12/06 07:56:19;;;;;;;99.43;25.48;;;;;;;;;;5092077;28;20086;-80
2021/12/06 07:58:45;;;;;;;102.78;25.48;;;;;;;;;;5108633;28;20043;-80
2021/12/06 08:01:12;;;;;;;97.38;24.95;;;;;;;;;;5108574;28;20040;-80
2021/12/06 08:03:39;;;;;;;87.68;23.45;;;;;;;;;;5095929;28;20123;-80
2021/12/06 08:06:08;;;;;;;81.80;24.00;;;;;;;;;;5091501;28;20071;-80
2021/12/06 08:08:34;;;;;;;79.10;21.50;;;;;;;;;;5109082;28;20085;-80
2021/12/06 08:11:04;;;;;;;77.45;22.92;;;;;;;;;;5109036;28;20044;-80
2021/12/06 08:13:31;;;;;;;84.18;24.27;;;;;;;;;;5105092;28;20063;-80
2021/12/06 08:15:59;;;;;;;81.50;22.38;;;;;;;;;;5098422;28;20052;-81
2021/12/06 08:18:25;;;;;;;67.63;22.15;;;;;;;;;;5094661;28;20119;-81
2021/12/06 08:20:52;;;;;;;69.80;22.27;;;;;;;;;;5117810;27;20036;-81
2021/12/06 08:23:18;;;;;;;64.70;21.73;;;;;;;;;;5083357;28;20416;-81
2021/12/06 08:25:46;;;;;;;70.72;23.15;;;;;;;;;;5108067;28;20093;-81
2021/12/06 08:28:12;;;;;;;66.28;22.02;;;;;;;;;;5091979;28;20044;-81
2021/12/06 08:30:39;;;;;;;61.58;20.52;;;;;;;;;;5108033;28;20085;-81
2021/12/06 08:33:05;;;;;;;66.25;21.92;;;;;;;;;;5108463;28;20482;-81
2021/12/06 08:35:33;;;;;;;65.25;21.73;;;;;;;;;;5108665;28;20085;-80
2021/12/06 08:38:00;;;;;;;62.22;21.77;;;;;;;;;;5108872;28;20054;-80
2021/12/06 08:40:27;;;;;;;68.20;22.15;;;;;;;;;;5125785;27;20043;-80
2021/12/06 08:42:53;;;;;;;65.00;22.95;;;;;;;;;;5108134;28;20441;-82
2021/12/06 08:45:19;;;;;;;66.82;22.13;;;;;;;;;;5091743;28;20044;-80
2021/12/06 08:47:45;;;;;;;65.07;22.30;;;;;;;;;;5107643;28;20043;-81
2021/12/06 08:50:19;;;;;;;70.53;22.98;;;;;;;;;;5092076;28;20435;-81
2021/12/06 08:52:46;;;;;;;68.13;21.50;;;;;;;;;;5107417;28;20476;-81
2021/12/06 08:55:13;;;;;;;72.40;22.65;;;;;;;;;;5108645;28;20083;-80
2021/12/06 08:57:39;;;;;;;74.28;23.17;;;;;;;;;;5125091;27;20040;-80
2021/12/06 09:00:10;;;;;;;71.55;22.75;;;;;;;;;;5107856;28;20046;-80
2021/12/06 09:02:38;;;;;;;72.93;22.05;;;;;;;;;;5108278;28;20044;-77
2021/12/06 09:05:04;;;;;;;64.97;22.23;;;;;;;;;;5107759;28;20040;-77
2021/12/06 09:07:30;;;;;;;68.95;22.08;;;;;;;;;;5108086;28;20040;-78
2021/12/06 09:09:56;;;;;;;73.82;22.48;;;;;;;;;;5090811;28;20388;-77
2021/12/06 09:12:26;;;;;;;73.05;22.60;;;;;;;;;;5091732;28;20433;-77
2021/12/06 09:14:53;;;;;;;66.47;21.23;;;;;;;;;;5107253;28;20047;-81
2021/12/06 09:17:19;;;;;;;66.25;23.15;;;;;;;;;;5091268;28;20094;-76
2021/12/06 09:19:46;;;;;;;63.60;21.70;;;;;;;;;;5107482;28;20122;-81
2021/12/06 09:22:12;;;;;;;59.92;21.88;;;;;;;;;;5108374;28;20044;-76
2021/12/06 09:24:39;;;;;;;66.50;21.52;;;;;;;;;;5124955;27;20047;-81
2021/12/06 09:27:06;;;;;;;58.90;21.48;;;;;;;;;;5107280;28;20475;-81
2021/12/06 09:29:36;;;;;;;62.15;20.70;;;;;;;;;;5074331;28;20040;-77
2021/12/06 09:32:03;;;;;;;56.40;20.17;;;;;;;;;;5107718;28;20402;-81
2021/12/06 09:34:31;;;;;;;54.53;19.98;;;;;;;;;;5107652;28;20039;-78
2021/12/06 09:36:57;;;;;;;58.92;21.05;;;;;;;;;;5107020;28;20066;-77
2021/12/06 09:39:23;;;;;;;61.05;20.27;;;;;;;;;;5107853;28;20043;-81
2021/12/06 09:41:49;;;;;;;61.95;20.17;;;;;;;;;;5094651;28;20563;-81
2021/12/06 09:44:15;;;;;;;63.95;20.83;;;;;;;;;;5106769;28;20437;-81
2021/12/06 09:46:42;;;;;;;56.28;19.50;;;;;;;;;;5125466;27;20118;-81
2021/12/06 09:49:10;;;;;;;57.22;18.80;;;;;;;;;;5108494;28;20118;-77
2021/12/06 09:51:37;;;;;;;60.75;20.08;;;;;;;;;;5111588;28;20497;-77
2021/12/06 09:54:04;;;;;;;64.72;20.20;;;;;;;;;;5110716;28;20376;-78
2021/12/06 09:56:32;;;;;;;66.93;20.75;;;;;;;;;;5094329;28;20036;-78
2021/12/06 09:59:00;;;;;;;64.45;20.73;;;;;;;;;;5110487;28;20044;-77
2021/12/06 10:01:29;;;;;;;64.15;20.88;;;;;;;;;;5111138;28;20039;-77
2021/12/06 10:03:58;;;;;;;64.03;19.67;;;;;;;;;;5110477;28;20032;-77
2021/12/06 10:06:26;;;;;;;62.40;18.42;;;;;;;;;;5111617;28;20104;-77
2021/12/06 10:08:54;;;;;;;57.45;19.52;;;;;;;;;;5110824;28;20114;-77
2021/12/06 10:11:21;;;;;;;55.80;18.65;;;;;;;;;;5111291;28;20043;-77
2021/12/06 10:13:48;;;;;;;52.35;17.05;;;;;;;;;;5110554;28;20479;-77
2021/12/06 10:16:15;;;;;;;49.70;15.52;;;;;;;;;;5111301;28;20443;-77
2021/12/06 10:18:41;;;;;;;54.17;17.73;;;;;;;;;;5111220;28;20459;-77
2021/12/06 10:21:09;;;;;;;59.08;17.48;;;;;;;;;;5094037;28;20054;-77
2021/12/06 10:23:37;;;;;;;60.00;18.10;;;;;;;;;;5111038;28;20139;-76
2021/12/06 10:26:04;;;;;;;62.75;18.63;;;;;;;;;;5110617;28;20105;-77
2021/12/06 10:28:31;;;;;;;64.53;19.63;;;;;;;;;;5111036;28;20497;-77
2021/12/06 10:31:07;;;;;;;67.88;18.75;;;;;;;;;;5119461;27;20071;-77
2021/12/06 10:33:38;;;;;;;70.65;19.23;;;;;;;;;;5094028;28;20528;-81
2021/12/06 10:36:10;;;;;;;74.38;21.40;;;;;;;;;;5111093;28;20245;-81
2021/12/06 10:38:37;;;;;;;76.88;20.45;;;;;;;;;;5110667;28;20121;-78
2021/12/06 10:41:08;;;;;;;79.80;20.75;;;;;;;;;;5110305;28;20045;-77
2021/12/06 10:43:35;;;;;;;81.65;22.58;;;;;;;;;;5093372;28;20031;-77
2021/12/06 10:46:02;;;;;;;56.92;16.70;;;;;;;;;;5092742;28;20047;-76
2021/12/06 10:48:30;;;;;;;82.13;20.08;;;;;;;;;;5110545;28;20437;-77
2021/12/06 10:50:58;;;;;;;85.53;21.60;;;;;;;;;;5110307;28;20479;-82
2021/12/06 10:53:42;;;;;;;72.22;19.80;;;;;;;;;;5110603;28;20032;-81
2021/12/06 10:56:15;;;;;;;78.00;20.35;;;;;;;;;;5109511;28;20054;-81
2021/12/06 10:58:42;;;;;;;69.15;18.95;;;;;;;;;;5111591;28;20043;-77
2021/12/06 11:01:09;;;;;;;71.72;20.50;;;;;;;;;;5095490;28;20040;-77
2021/12/06 11:03:37;;;;;;;72.60;22.05;;;;;;;;;;5096564;28;20387;-76
2021/12/06 11:06:07;;;;;;;70.57;19.98;;;;;;;;;;5109571;28;20395;-75
2021/12/06 11:08:37;;;;;;;75.53;21.00;;;;;;;;;;5110353;28;20044;-77
2021/12/06 11:11:09;;;;;;;72.97;20.20;;;;;;;;;;5109290;28;20035;-77
2021/12/06 11:13:37;;;;;;;80.28;22.02;;;;;;;;;;5109835;28;20036;-77
2021/12/06 11:16:11;;;;;;;80.13;23.52;;;;;;;;;;5091899;28;20051;-76
2021/12/06 11:18:40;;;;;;;88.00;22.17;;;;;;;;;;5109521;28;20039;-81
2021/12/06 11:21:13;;;;;;;86.72;23.67;;;;;;;;;;5110803;28;20381;-81
2021/12/06 11:23:58;;;;;;;84.10;22.85;;;;;;;;;;5109983;28;20107;-81
2021/12/06 11:26:24;;;;;;;80.15;22.17;;;;;;;;;;5110147;28;20406;-82
2021/12/06 11:28:50;;;;;;;90.38;24.17;;;;;;;;;;5109885;28;20112;-82
2021/12/06 11:31:17;;;;;;;80.88;24.15;;;;;;;;;;5109745;28;20038;-77
2021/12/06 11:33:43;;;;;;;100.65;26.52;;;;;;;;;;5092542;28;20051;-77
2021/12/06 11:36:22;;;;;;;96.93;26.17;;;;;;;;;;5109207;28;20050;-78
2021/12/06 11:38:57;;;;;;;96.28;25.42;;;;;;;;;;5091817;28;20039;-78
2021/12/06 11:41:23;;;;;;;92.70;25.73;;;;;;;;;;5109633;28;20360;-82
2021/12/06 11:43:49;;;;;;;86.88;23.70;;;;;;;;;;5091119;28;20042;-82
2021/12/06 11:46:27;;;;;;;90.85;23.58;;;;;;;;;;5096033;28;20052;-81
2021/12/06 11:48:53;;;;;;;100.65;24.67;;;;;;;;;;5095142;28;20046;-77
2021/12/06 11:51:21;;;;;;;104.72;26.95;;;;;;;;;;5075716;28;20119;-76
2021/12/06 11:53:50;;;;;;;103.32;26.63;;;;;;;;;;5108861;28;20111;-77
2021/12/06 11:56:18;;;;;;;83.95;23.45;;;;;;;;;;5108364;28;20089;-78
2021/12/06 11:58:48;;;;;;;99.63;25.80;;;;;;;;;;5109212;28;20047;-77
2021/12/06 12:01:24;;;;;;;96.30;25.42;;;;;;;;;;5091677;28;20578;-77
2021/12/06 12:03:51;;;;;;;83.40;22.33;;;;;;;;;;5108572;28;20044;-77
2021/12/06 12:06:26;;;;;;;102.78;27.80;;;;;;;;;;5107510;28;20102;-76
2021/12/06 12:09:11;;;;;;;105.50;26.08;;;;;;;;;;5108847;28;20031;-77
2021/12/06 12:11:57;;;;;;;107.13;28.30;;;;;;;;;;5094021;28;20051;-77
2021/12/06 12:14:43;;;;;;;112.68;26.98;;;;;;;;;;5108964;28;20118;-77
2021/12/06 12:17:12;;;;;;;96.22;27.88;;;;;;;;;;5108997;28;20144;-77
2021/12/06 12:19:39;;;;;;;98.35;28.85;;;;;;;;;;5108762;28;20047;-77
2021/12/06 12:22:06;;;;;;;90.72;26.95;;;;;;;;;;5107782;28;20043;-77
2021/12/06 12:24:33;;;;;;;95.25;28.80;;;;;;;;;;5108674;28;20047;-77
2021/12/06 12:27:15;;;;;;;93.25;29.00;;;;;;;;;;5091267;28;20112;-77
2021/12/06 12:29:41;;;;;;;92.50;28.30;;;;;;;;;;5092384;28;20428;-77
2021/12/06 12:32:07;;;;;;;85.65;27.30;;;;;;;;;;5107792;28;20123;-80
2021/12/06 12:34:36;;;;;;;94.95;30.20;;;;;;;;;;5125801;27;20035;-78
2021/12/06 12:37:04;;;;;;;78.93;25.17;;;;;;;;;;5107995;28;20524;-77
2021/12/06 12:39:30;;;;;;;79.40;26.20;;;;;;;;;;5109171;28;20092;-77
2021/12/06 12:41:58;;;;;;;89.57;28.20;;;;;;;;;;5094169;28;20047;-77
2021/12/06 12:44:24;;;;;;;84.35;28.38;;;;;;;;;;5088014;28;20542;-78
2021/12/06 12:46:53;;;;;;;81.50;27.60;;;;;;;;;;5096425;28;20407;-77
2021/12/06 12:49:30;;;;;;;80.43;25.88;;;;;;;;;;5106579;28;20051;-77
2021/12/06 12:51:57;;;;;;;77.18;26.65;;;;;;;;;;5109424;28;20043;-77
2021/12/06 12:54:25;;;;;;;74.15;25.98;;;;;;;;;;5107792;28;20036;-77
2021/12/06 12:56:51;;;;;;;77.28;26.67;;;;;;;;;;5108171;28;20042;-78
2021/12/06 12:59:23;;;;;;;64.90;24.27;;;;;;;;;;5108223;28;20039;-77
2021/12/06 13:02:07;;;;;;;78.90;26.23;;;;;;;;;;5090649;28;20050;-77
2021/12/06 13:04:52;;;;;;;70.00;24.98;;;;;;;;;;5108265;28;20043;-78
2021/12/06 13:07:18;;;;;;;76.68;26.45;;;;;;;;;;5090638;28;20380;-77
2021/12/06 13:09:44;;;;;;;66.70;23.48;;;;;;;;;;5107964;28;20039;-81
2021/12/06 13:12:12;;;;;;;75.13;26.38;;;;;;;;;;5107299;28;20052;-77
2021/12/06 13:14:44;;;;;;;71.88;24.92;;;;;;;;;;5107770;28;20119;-79
2021/12/06 13:17:17;;;;;;;78.32;27.13;;;;;;;;;;5108304;28;20059;-81
2021/12/06 13:19:50;;;;;;;82.55;27.27;;;;;;;;;;5096344;28;20050;-81
2021/12/06 13:22:17;;;;;;;75.22;27.08;;;;;;;;;;5112113;28;20082;-82
2021/12/06 13:24:44;;;;;;;68.95;24.60;;;;;;;;;;5095528;28;20380;-81
2021/12/06 13:27:19;;;;;;;83.28;27.50;;;;;;;;;;5111398;28;20071;-83
2021/12/06 13:29:47;;;;;;;76.07;27.25;;;;;;;;;;5089631;28;20505;-76
2021/12/06 13:32:32;;;;;;;82.22;28.17;;;;;;;;;;5111154;28;20130;-78
2021/12/06 13:35:18;;;;;;;81.97;28.15;;;;;;;;;;5112025;28;20115;-76
2021/12/06 13:38:05;;;;;;;73.22;26.90;;;;;;;;;;5098931;28;20132;-78
2021/12/06 13:40:32;;;;;;;75.32;25.90;;;;;;;;;;5063736;28;20113;-77
2021/12/06 13:43:05;;;;;;;68.90;24.67;;;;;;;;;;5102940;28;20044;-77
2021/12/06 13:45:36;;;;;;;77.93;26.50;;;;;;;;;;5107031;28;20058;-77
2021/12/06 13:48:18;;;;;;;73.75;26.80;;;;;;;;;;5094246;28;20044;-81
2021/12/06 13:50:45;;;;;;;69.63;26.23;;;;;;;;;;5094687;28;20047;-77
2021/12/06 13:53:26;;;;;;;65.30;24.92;;;;;;;;;;5111288;28;20063;-77
2021/12/06 13:55:53;;;;;;;68.60;24.40;;;;;;;;;;5081089;28;20040;-77
2021/12/06 13:58:20;;;;;;;81.63;26.83;;;;;;;;;;5092752;28;20211;-77
2021/12/06 14:00:47;;;;;;;64.80;23.48;;;;;;;;;;5111930;28;20493;-76
2021/12/06 14:03:28;;;;;;;74.40;25.30;;;;;;;;;;5111013;28;20036;-77
2021/12/06 14:05:54;;;;;;;70.68;23.02;;;;;;;;;;5110968;28;20380;-76
2021/12/06 14:08:22;;;;;;;73.70;23.05;;;;;;;;;;5111225;28;20364;-78
2021/12/06 14:10:49;;;;;;;71.07;27.85;;;;;;;;;;5111241;28;20040;-77
2021/12/06 14:13:15;;;;;;;79.05;26.83;;;;;;;;;;5110550;28;20039;-77
2021/12/06 14:18:10;;;;;;;69.47;23.35;;;;;;;;;;5110411;28;20051;-77
2021/12/06 14:20:38;;;;;;;76.45;26.58;;;;;;;;;;5105469;28;20028;-75
2021/12/06 14:23:07;;;;;;;88.10;27.05;;;;;;;;;;5099761;28;20044;-78
2021/12/06 14:25:34;;;;;;;83.40;26.52;;;;;;;;;;5129589;27;20066;-77
2021/12/06 14:28:01;;;;;;;80.57;26.35;;;;;;;;;;5110248;28;20047;-77
2021/12/06 14:30:27;;;;;;;91.63;30.25;;;;;;;;;;5109754;28;20035;-77
2021/12/06 14:32:55;;;;;;;78.07;25.38;;;;;;;;;;5110828;28;20115;-77
2021/12/06 14:35:22;;;;;;;81.90;28.73;;;;;;;;;;5110626;28;20042;-77
2021/12/06 14:37:48;;;;;;;88.22;28.95;;;;;;;;;;5111140;28;20035;-77